createdAt,value
2023-05-11T00:02:25.051Z,12.40
2023-05-11T00:04:52.113Z,12.30
2023-05-11T00:07:18.925Z,12.30
2023-05-11T00:09:45.723Z,12.30
2023-05-11T00:12:13.482Z,12.30
2023-05-11T00:14:40.788Z,12.30
2023-05-11T00:17:07.709Z,12.30
2023-05-11T00:19:34.563Z,12.20
2023-05-11T00:22:01.887Z,12.20
2023-05-11T00:24:28.731Z,12.20
2023-05-11T00:26:56.464Z,12.20
2023-05-11T00:29:23.312Z,12.20
2023-05-11T00:31:50.317Z,12.20
2023-05-11T00:34:18.186Z,12.20
2023-05-11T00:36:45.599Z,12.20
2023-05-11T00:39:12.731Z,12.20
2023-05-11T00:41:40.613Z,12.20
2023-05-11T00:44:07.761Z,12.30
2023-05-11T00:46:35.284Z,12.30
2023-05-11T00:49:02.514Z,12.30
2023-05-11T00:51:30.180Z,12.30
2023-05-11T00:53:57.338Z,12.20
2023-05-11T00:56:24.171Z,12.20
2023-05-11T00:58:51.524Z,12.20
2023-05-11T01:01:19.266Z,12.30
2023-05-11T01:03:47.457Z,12.30
2023-05-11T01:06:22.093Z,12.30
2023-05-11T01:09:02.763Z,12.30
2023-05-11T01:11:57.125Z,12.30
2023-05-11T01:14:31.528Z,12.20
2023-05-11T01:17:06.030Z,12.30
2023-05-11T01:19:40.430Z,12.40
2023-05-11T01:22:57.081Z,12.40
2023-05-11T01:26:07.141Z,12.40
2023-05-11T01:28:58.420Z,12.40
2023-05-11T01:31:30.517Z,12.40
2023-05-11T01:34:05.038Z,12.40
2023-05-11T01:36:39.004Z,12.30
2023-05-11T01:39:10.172Z,12.30
2023-05-11T01:41:40.393Z,12.40
2023-05-11T01:44:10.690Z,12.30
2023-05-11T01:46:38.757Z,12.30
2023-05-11T01:49:07.697Z,12.20
2023-05-11T01:51:37.768Z,12.30
2023-05-11T01:54:08.255Z,12.20
2023-05-11T01:56:37.444Z,12.20
2023-05-11T01:59:05.894Z,12.30
2023-05-11T02:01:35.964Z,12.20
2023-05-11T02:04:04.898Z,12.20
2023-05-11T02:06:34.589Z,12.30
2023-05-11T02:09:03.375Z,12.30
2023-05-11T02:11:32.267Z,12.20
2023-05-11T02:14:00.456Z,12.20
2023-05-11T02:16:28.569Z,12.30
2023-05-11T02:18:57.046Z,12.30
2023-05-11T02:21:25.787Z,12.40
2023-05-11T02:23:53.958Z,12.30
2023-05-11T02:26:20.964Z,12.40
2023-05-11T02:28:47.916Z,12.40
2023-05-11T02:31:21.297Z,12.40
2023-05-11T02:33:52.422Z,12.40
2023-05-11T02:36:22.394Z,12.40
2023-05-11T02:38:53.743Z,12.40
2023-05-11T02:41:27.020Z,12.40
2023-05-11T02:43:55.506Z,12.40
2023-05-11T02:46:28.440Z,12.40
2023-05-11T02:49:01.239Z,12.40
2023-05-11T02:51:36.069Z,12.40
2023-05-11T02:54:07.275Z,12.40
2023-05-11T02:56:34.400Z,12.40
2023-05-11T02:59:01.527Z,12.40
2023-05-11T03:01:30.847Z,12.40
2023-05-11T03:03:58.425Z,12.30
2023-05-11T03:06:26.041Z,12.30
2023-05-11T03:08:53.164Z,12.30
2023-05-11T03:11:21.510Z,12.20
2023-05-11T03:13:50.259Z,12.20
2023-05-11T03:16:20.923Z,12.20
2023-05-11T03:18:50.053Z,12.20
2023-05-11T03:21:21.550Z,12.20
2023-05-11T03:23:49.544Z,12.20
2023-05-11T03:26:19.402Z,12.10
2023-05-11T03:28:47.324Z,12.10
2023-05-11T03:31:14.641Z,12.10
2023-05-11T03:33:41.473Z,12.10
2023-05-11T03:36:10.741Z,12.10
2023-05-11T03:38:38.195Z,12.10
2023-05-11T03:41:05.044Z,12.10
2023-05-11T03:43:35.185Z,12.10
2023-05-11T03:46:04.419Z,12.00
2023-05-11T03:48:32.453Z,12.00
2023-05-11T03:51:00.164Z,12.00
2023-05-11T03:53:27.112Z,12.10
2023-05-11T03:55:54.953Z,12.10
2023-05-11T03:58:22.892Z,12.10
2023-05-11T04:00:50.232Z,12.20
2023-05-11T04:03:17.201Z,12.20
2023-05-11T04:05:44.138Z,12.30
2023-05-11T04:08:11.987Z,12.30
2023-05-11T04:10:38.858Z,12.30
2023-05-11T04:13:05.890Z,12.30
2023-05-11T04:15:32.755Z,12.30
2023-05-11T04:17:59.638Z,12.30
2023-05-11T04:20:26.823Z,12.40
2023-05-11T04:22:53.654Z,12.40
2023-05-11T04:25:20.592Z,12.30
2023-05-11T04:27:47.433Z,12.30
2023-05-11T04:30:14.471Z,12.40
2023-05-11T04:32:41.441Z,12.50
2023-05-11T04:35:08.754Z,12.50
2023-05-11T04:37:35.673Z,12.50
2023-05-11T04:40:02.589Z,12.60
2023-05-11T04:42:30.708Z,12.70
2023-05-11T04:44:57.541Z,12.90
2023-05-11T04:47:24.405Z,13.10
2023-05-11T04:49:52.119Z,13.20
2023-05-11T04:52:19.001Z,13.20
2023-05-11T04:54:45.999Z,13.30
2023-05-11T04:57:12.842Z,13.50
2023-05-11T04:59:39.781Z,13.60
2023-05-11T05:02:06.653Z,13.80
2023-05-11T05:04:35.631Z,13.90
2023-05-11T05:07:04.489Z,13.90
2023-05-11T05:09:31.331Z,13.80
2023-05-11T05:11:58.282Z,13.80
2023-05-11T05:14:25.132Z,13.70
2023-05-11T05:16:54.641Z,13.60
2023-05-11T05:19:21.602Z,13.50
2023-05-11T05:21:48.561Z,13.50
2023-05-11T05:24:15.564Z,13.50
2023-05-11T05:26:42.372Z,13.50
2023-05-11T05:29:09.302Z,13.40
2023-05-11T05:31:36.178Z,13.30
2023-05-11T05:34:02.989Z,13.20
2023-05-11T05:36:29.798Z,13.10
2023-05-11T05:38:56.614Z,13.10
2023-05-11T05:41:23.547Z,13.10
2023-05-11T05:43:50.459Z,13.00
2023-05-11T05:46:18.139Z,13.00
2023-05-11T05:48:45.022Z,12.90
2023-05-11T05:51:11.909Z,12.90
2023-05-11T05:53:39.040Z,13.00
2023-05-11T05:56:06.257Z,13.10
2023-05-11T05:58:33.161Z,13.10
2023-05-11T06:01:01.027Z,13.10
2023-05-11T06:03:29.466Z,13.10
2023-05-11T06:05:56.751Z,13.10
2023-05-11T06:08:23.633Z,13.10
2023-05-11T06:10:50.571Z,13.20
2023-05-11T06:13:17.394Z,13.20
2023-05-11T06:15:44.225Z,13.20
2023-05-11T06:18:11.316Z,13.20
2023-05-11T06:20:38.205Z,13.10
2023-05-11T06:23:05.175Z,13.20
2023-05-11T06:25:35.079Z,13.20
2023-05-11T06:28:02.183Z,13.20
2023-05-11T06:30:29.707Z,13.20
2023-05-11T06:32:56.652Z,13.30
2023-05-11T06:35:23.624Z,13.40
2023-05-11T06:37:50.590Z,13.40
2023-05-11T06:40:17.671Z,13.40
2023-05-11T06:42:44.799Z,13.40
2023-05-11T06:45:11.757Z,13.50
2023-05-11T06:47:38.699Z,13.50
2023-05-11T06:50:06.166Z,13.60
2023-05-11T06:52:32.968Z,13.70
2023-05-11T06:54:59.801Z,13.90
2023-05-11T06:57:26.657Z,13.90
2023-05-11T06:59:53.515Z,13.90
2023-05-11T07:02:20.516Z,13.90
2023-05-11T07:04:47.387Z,14.00
2023-05-11T07:07:14.230Z,14.00
2023-05-11T07:09:42.080Z,14.00
2023-05-11T07:12:09.066Z,14.00
2023-05-11T07:14:35.913Z,14.00
2023-05-11T07:17:02.786Z,14.20
2023-05-11T07:19:29.702Z,14.20
2023-05-11T07:21:56.608Z,14.40
2023-05-11T07:24:23.516Z,14.40
2023-05-11T07:26:52.032Z,14.40
2023-05-11T07:29:18.888Z,14.40
2023-05-11T07:31:46.073Z,14.50
2023-05-11T07:34:12.962Z,14.60
2023-05-11T07:36:39.864Z,14.60
2023-05-11T07:39:06.835Z,14.70
2023-05-11T07:41:33.699Z,14.60
2023-05-11T07:44:01.873Z,14.60
2023-05-11T07:46:28.802Z,14.70
2023-05-11T07:49:11.336Z,14.90
2023-05-11T07:51:42.830Z,15.10
2023-05-11T07:54:09.776Z,15.20
2023-05-11T07:56:36.641Z,15.20
2023-05-11T07:59:03.503Z,15.10
2023-05-11T08:01:30.432Z,15.00
2023-05-11T08:03:57.265Z,14.70
2023-05-11T08:06:24.112Z,14.80
2023-05-11T08:08:51.512Z,14.70
2023-05-11T08:11:18.559Z,14.70
2023-05-11T08:13:45.380Z,14.70
2023-05-11T08:16:12.701Z,14.70
2023-05-11T08:18:39.652Z,14.70
2023-05-11T08:21:07.760Z,14.90
2023-05-11T08:23:34.748Z,15.00
2023-05-11T08:28:42.290Z,15.30
2023-05-11T08:31:09.151Z,15.30
2023-05-11T08:33:38.628Z,15.30
2023-05-11T08:36:07.000Z,15.50
2023-05-11T08:38:35.654Z,15.70
2023-05-11T08:41:02.978Z,15.90
2023-05-11T08:43:31.956Z,16.10
2023-05-11T08:46:04.368Z,16.20
2023-05-11T08:48:32.068Z,16.50
2023-05-11T08:50:59.496Z,16.70
2023-05-11T08:53:26.620Z,16.90
2023-05-11T08:55:58.077Z,16.80
2023-05-11T08:58:25.540Z,16.90
2023-05-11T09:00:52.542Z,16.90
2023-05-11T09:03:19.809Z,16.80
2023-05-11T09:05:47.686Z,16.70
2023-05-11T09:08:15.543Z,16.50
2023-05-11T09:10:43.810Z,16.60
2023-05-11T09:13:11.321Z,16.50
2023-05-11T09:15:38.533Z,16.40
2023-05-11T09:18:05.895Z,16.30
2023-05-11T09:20:34.078Z,16.40
2023-05-11T09:23:01.443Z,16.50
2023-05-11T09:25:33.744Z,16.60
2023-05-11T09:28:00.899Z,16.80
2023-05-11T09:30:28.388Z,16.80
2023-05-11T09:32:57.280Z,16.90
2023-05-11T09:35:26.601Z,17.10
2023-05-11T09:38:05.461Z,17.10
2023-05-11T09:40:50.077Z,17.00
2023-05-11T09:43:25.075Z,17.00
2023-05-11T09:45:54.409Z,17.00
2023-05-11T09:48:21.422Z,17.00
2023-05-11T09:50:50.324Z,17.20
2023-05-11T09:53:17.830Z,17.30
2023-05-11T09:55:56.046Z,17.40
2023-05-11T09:58:23.008Z,17.50
2023-05-11T10:00:56.666Z,17.60
2023-05-11T10:03:25.857Z,17.70
2023-05-11T10:06:00.810Z,17.80
2023-05-11T10:08:30.385Z,17.60
2023-05-11T10:10:57.962Z,17.60
2023-05-11T10:13:25.032Z,17.70
2023-05-11T10:15:52.968Z,17.70
2023-05-11T10:18:20.389Z,17.70
2023-05-11T10:20:47.897Z,17.80
2023-05-11T10:23:16.014Z,17.80
2023-05-11T10:25:43.265Z,17.80
2023-05-11T10:28:11.038Z,17.90
2023-05-11T10:30:38.454Z,17.80
2023-05-11T10:33:06.926Z,17.80
2023-05-11T10:35:34.169Z,17.90
2023-05-11T10:38:01.431Z,17.80
2023-05-11T10:40:28.812Z,17.80
2023-05-11T10:43:13.633Z,18.00
2023-05-11T10:45:47.056Z,18.30
2023-05-11T10:48:35.866Z,18.40
2023-05-11T10:51:34.349Z,18.70
2023-05-11T10:54:09.791Z,18.50
2023-05-11T10:57:04.969Z,18.80
2023-05-11T11:00:10.279Z,19.20
2023-05-11T11:02:38.225Z,19.50
2023-05-11T11:05:09.371Z,19.70
2023-05-11T11:07:59.933Z,19.80
2023-05-11T11:10:46.509Z,19.90
2023-05-11T11:13:15.278Z,19.90
2023-05-11T11:15:54.513Z,19.70
2023-05-11T11:18:25.430Z,19.70
2023-05-11T11:20:54.961Z,19.60
2023-05-11T11:23:40.274Z,19.70
2023-05-11T11:26:08.374Z,19.80
2023-05-11T11:28:53.919Z,19.80
2023-05-11T11:31:29.005Z,19.70
2023-05-11T11:33:59.385Z,19.80
2023-05-11T11:37:06.633Z,19.80
2023-05-11T11:39:47.507Z,19.90
2023-05-11T11:42:19.416Z,19.80
2023-05-11T11:44:46.710Z,19.60
2023-05-11T11:47:21.782Z,19.70
2023-05-11T11:49:56.037Z,19.80
2023-05-11T11:52:29.108Z,19.70
2023-05-11T11:54:57.376Z,19.70
2023-05-11T11:57:32.627Z,19.70
2023-05-11T12:00:13.050Z,19.90
2023-05-11T12:02:44.721Z,19.60
2023-05-11T12:05:20.007Z,19.60
2023-05-11T12:07:51.639Z,19.60
2023-05-11T12:10:21.371Z,19.60
2023-05-11T12:12:49.533Z,19.70
2023-05-11T12:15:27.460Z,19.80
2023-05-11T12:17:55.194Z,19.70
2023-05-11T12:20:26.087Z,19.70
2023-05-11T12:22:53.773Z,19.90
2023-05-11T12:25:22.077Z,20.00
2023-05-11T12:27:55.483Z,20.00
2023-05-11T12:30:24.832Z,20.10
2023-05-11T12:32:56.885Z,20.10
2023-05-11T12:35:28.139Z,19.90
2023-05-11T12:37:56.622Z,19.80
2023-05-11T12:40:24.028Z,19.90
2023-05-11T12:42:58.751Z,20.00
2023-05-11T12:45:27.138Z,20.00
2023-05-11T12:47:55.395Z,20.10
2023-05-11T12:50:22.840Z,19.90
2023-05-11T12:52:50.803Z,19.80
2023-05-11T12:55:28.802Z,19.60
2023-05-11T12:58:08.132Z,19.60
2023-05-11T13:00:35.378Z,19.50
2023-05-11T13:03:02.991Z,19.60
2023-05-11T13:05:30.413Z,19.80
2023-05-11T13:08:05.340Z,19.80
2023-05-11T13:10:32.374Z,19.60
2023-05-11T13:12:59.543Z,19.40
2023-05-11T13:15:28.778Z,18.60
2023-05-11T13:18:00.798Z,18.10
2023-05-11T13:20:35.225Z,17.50
2023-05-11T13:23:10.939Z,17.10
2023-05-11T13:25:48.376Z,16.90
2023-05-11T13:28:16.602Z,17.00
2023-05-11T13:30:43.936Z,16.80
2023-05-11T13:33:10.934Z,16.90
2023-05-11T13:35:41.954Z,17.00
2023-05-11T13:38:10.051Z,17.10
2023-05-11T13:40:37.481Z,17.10
2023-05-11T13:43:04.833Z,16.90
2023-05-11T13:45:31.677Z,17.10
2023-05-11T13:47:58.550Z,17.10
2023-05-11T13:50:26.849Z,17.20
2023-05-11T13:52:54.412Z,17.20
2023-05-11T13:55:21.664Z,17.30
2023-05-11T13:57:48.760Z,17.50
2023-05-11T14:00:16.277Z,17.70
2023-05-11T14:02:44.410Z,17.80
2023-05-11T14:05:11.484Z,18.00
2023-05-11T14:07:47.092Z,17.90
2023-05-11T14:10:15.833Z,18.00
2023-05-11T14:12:42.852Z,18.10
2023-05-11T14:15:10.591Z,18.10
2023-05-11T14:17:37.650Z,18.20
2023-05-11T14:20:06.181Z,18.20
2023-05-11T14:22:33.093Z,18.20
2023-05-11T14:25:00.208Z,18.10
2023-05-11T14:27:27.062Z,18.20
2023-05-11T14:29:54.591Z,18.30
2023-05-11T14:32:21.578Z,18.30
2023-05-11T14:34:48.909Z,18.60
2023-05-11T14:37:15.854Z,18.40
2023-05-11T14:39:42.736Z,18.40
2023-05-11T14:42:10.902Z,18.50
2023-05-11T14:44:38.110Z,18.30
2023-05-11T14:47:05.638Z,18.10
2023-05-11T14:49:32.576Z,18.10
2023-05-11T14:51:59.824Z,18.10
2023-05-11T14:54:26.725Z,18.20
2023-05-11T14:56:56.170Z,18.20
2023-05-11T14:59:24.543Z,18.20
2023-05-11T15:01:51.647Z,18.30
2023-05-11T15:04:19.626Z,18.50
2023-05-11T15:06:46.830Z,18.40
2023-05-11T15:09:13.919Z,18.50
2023-05-11T15:11:40.989Z,18.50
2023-05-11T15:14:07.820Z,18.50
2023-05-11T15:16:34.741Z,18.60
2023-05-11T15:19:01.782Z,18.60
2023-05-11T15:21:28.633Z,18.90
2023-05-11T15:23:55.691Z,18.80
2023-05-11T15:26:23.008Z,18.60
2023-05-11T15:28:50.160Z,18.50
2023-05-11T15:31:17.398Z,18.30
2023-05-11T15:33:44.896Z,18.30
2023-05-11T15:36:13.736Z,18.60
2023-05-11T15:38:41.552Z,18.70
2023-05-11T15:41:08.401Z,18.70
2023-05-11T15:43:35.463Z,18.80
2023-05-11T15:46:05.803Z,18.80
2023-05-11T15:48:35.774Z,18.60
2023-05-11T15:51:03.046Z,18.40
2023-05-11T15:53:30.012Z,18.20
2023-05-11T15:55:57.126Z,18.30
2023-05-11T15:58:24.050Z,18.20
2023-05-11T16:00:51.416Z,18.00
2023-05-11T16:03:20.146Z,18.10
2023-05-11T16:05:47.224Z,18.10
2023-05-11T16:08:14.762Z,17.90
2023-05-11T16:10:45.634Z,17.80
2023-05-11T16:13:12.536Z,17.80
2023-05-11T16:15:39.395Z,17.90
2023-05-11T16:18:06.755Z,17.90
2023-05-11T16:20:33.683Z,17.70
2023-05-11T16:23:00.537Z,17.70
2023-05-11T16:25:27.432Z,17.80
2023-05-11T16:27:54.364Z,17.80
2023-05-11T16:30:25.554Z,17.80
2023-05-11T16:32:53.585Z,17.80
2023-05-11T16:35:20.958Z,17.70
2023-05-11T16:37:48.379Z,17.70
2023-05-11T16:40:19.424Z,17.50
2023-05-11T16:42:47.584Z,17.40
2023-05-11T16:45:15.208Z,17.50
2023-05-11T16:47:42.694Z,17.70
2023-05-11T16:50:10.903Z,17.60
2023-05-11T16:52:37.714Z,17.40
2023-05-11T16:55:05.120Z,17.40
2023-05-11T16:57:31.999Z,17.20
2023-05-11T16:59:58.877Z,17.10
2023-05-11T17:02:25.940Z,17.20
2023-05-11T17:04:53.101Z,17.20
2023-05-11T17:07:19.945Z,17.30
2023-05-11T17:09:46.848Z,17.30
2023-05-11T17:12:13.735Z,17.30
2023-05-11T17:14:40.561Z,17.30
2023-05-11T17:17:08.238Z,17.20
2023-05-11T17:19:35.084Z,17.20
2023-05-11T17:22:02.432Z,17.10
2023-05-11T17:24:29.407Z,17.00
2023-05-11T17:26:56.308Z,17.00
2023-05-11T17:29:23.522Z,17.10
2023-05-11T17:31:52.070Z,17.00
2023-05-11T17:34:20.531Z,17.00
2023-05-11T17:36:48.574Z,17.00
2023-05-11T17:39:16.666Z,16.90
2023-05-11T17:41:43.819Z,16.90
2023-05-11T17:44:10.833Z,16.90
2023-05-11T17:46:37.693Z,17.00
2023-05-11T17:49:06.135Z,16.90
2023-05-11T17:51:33.094Z,16.70
2023-05-11T17:53:59.939Z,16.70
2023-05-11T17:56:26.948Z,16.60
2023-05-11T17:58:53.779Z,16.40
2023-05-11T18:01:22.900Z,16.40
2023-05-11T18:03:50.312Z,16.20
2023-05-11T18:06:17.309Z,15.90
2023-05-11T18:08:44.174Z,15.80
2023-05-11T18:11:12.982Z,15.70
2023-05-11T18:13:40.042Z,15.50
2023-05-11T18:16:07.386Z,15.50
2023-05-11T18:18:34.612Z,15.50
2023-05-11T18:21:08.328Z,15.40
2023-05-11T18:23:35.153Z,15.40
2023-05-11T18:26:01.991Z,15.30
2023-05-11T18:28:28.917Z,15.30
2023-05-11T18:30:56.193Z,15.30
2023-05-11T18:33:23.087Z,15.40
2023-05-11T18:35:51.613Z,15.40
2023-05-11T18:38:18.548Z,15.30
2023-05-11T18:40:45.512Z,15.20
2023-05-11T18:43:12.547Z,15.20
2023-05-11T18:45:41.114Z,15.20
2023-05-11T18:48:08.217Z,15.20
2023-05-11T18:50:35.904Z,15.10
2023-05-11T18:53:02.790Z,15.10
2023-05-11T18:55:35.510Z,15.30
2023-05-11T18:58:08.128Z,15.10
2023-05-11T19:00:37.668Z,15.10
2023-05-11T19:03:04.656Z,15.00
2023-05-11T19:05:31.671Z,15.00
2023-05-11T19:07:58.544Z,15.00
2023-05-11T19:10:25.371Z,14.90
2023-05-11T19:12:52.260Z,14.80
2023-05-11T19:15:19.243Z,14.80
2023-05-11T19:17:46.575Z,14.90
2023-05-11T19:20:13.826Z,15.00
2023-05-11T19:22:40.828Z,14.90
2023-05-11T19:25:08.737Z,14.90
2023-05-11T19:27:35.957Z,14.90
2023-05-11T19:30:04.778Z,14.90
2023-05-11T19:32:31.694Z,14.70
2023-05-11T19:34:58.546Z,14.70
2023-05-11T19:37:25.389Z,14.60
2023-05-11T19:39:52.305Z,14.60
2023-05-11T19:42:23.558Z,14.60
2023-05-11T19:44:58.889Z,14.50
2023-05-11T19:47:26.038Z,14.60
2023-05-11T19:49:53.195Z,14.60
2023-05-11T19:52:20.191Z,14.70
2023-05-11T19:54:47.307Z,14.60
2023-05-11T19:57:14.147Z,14.60
2023-05-11T19:59:41.326Z,14.60
2023-05-11T20:02:08.160Z,14.60
2023-05-11T20:04:34.961Z,14.60
2023-05-11T20:07:01.872Z,14.60
2023-05-11T20:09:28.747Z,14.50
2023-05-11T20:11:56.036Z,14.50
2023-05-11T20:14:23.334Z,14.40
2023-05-11T20:16:50.175Z,14.40
2023-05-11T20:19:17.266Z,14.30
2023-05-11T20:21:44.158Z,14.30
2023-05-11T20:24:11.057Z,14.20
2023-05-11T20:26:38.316Z,14.30
2023-05-11T20:29:06.922Z,14.20
2023-05-11T20:31:34.204Z,14.20
2023-05-11T20:36:30.949Z,14.10
2023-05-11T20:38:57.837Z,14.20
2023-05-11T20:41:24.779Z,14.10
2023-05-11T20:43:52.897Z,14.10
2023-05-11T20:46:20.720Z,14.00
2023-05-11T20:48:51.455Z,14.00
2023-05-11T20:51:23.290Z,14.00
2023-05-11T20:53:50.837Z,13.90
2023-05-11T20:56:17.623Z,13.90
2023-05-11T20:58:47.530Z,14.00
2023-05-11T21:01:14.563Z,14.00
2023-05-11T21:03:41.695Z,13.90
2023-05-11T21:06:08.995Z,13.90
2023-05-11T21:08:36.462Z,13.80
2023-05-11T21:11:03.367Z,13.80
2023-05-11T21:13:30.730Z,13.80
2023-05-11T21:15:57.679Z,13.80
2023-05-11T21:18:32.103Z,13.80
2023-05-11T21:20:59.286Z,13.80
2023-05-11T21:23:26.165Z,13.80
2023-05-11T21:25:54.818Z,13.80
2023-05-11T21:28:21.820Z,13.80
2023-05-11T21:30:48.739Z,13.80
2023-05-11T21:33:15.728Z,13.80
2023-05-11T21:35:42.642Z,13.80
2023-05-11T21:38:10.084Z,13.80
2023-05-11T21:40:38.945Z,13.70
2023-05-11T21:43:09.088Z,13.70
2023-05-11T21:45:36.615Z,13.70
2023-05-11T21:48:03.688Z,13.70
2023-05-11T21:50:30.606Z,13.70
2023-05-11T21:52:57.454Z,13.70
2023-05-11T21:55:24.498Z,13.70
2023-05-11T21:57:51.692Z,13.60
2023-05-11T22:00:19.623Z,13.60
2023-05-11T22:02:46.738Z,13.60
2023-05-11T22:05:13.656Z,13.70
2023-05-11T22:07:40.699Z,13.70
2023-05-11T22:10:08.055Z,13.70
2023-05-11T22:12:35.111Z,13.70
2023-05-11T22:15:03.784Z,13.70
2023-05-11T22:17:30.740Z,13.60
2023-05-11T22:19:57.587Z,13.60
2023-05-11T22:22:27.747Z,13.60
2023-05-11T22:24:54.768Z,13.60
2023-05-11T22:27:21.664Z,13.60
2023-05-11T22:29:48.665Z,13.60
2023-05-11T22:32:15.499Z,13.60
2023-05-11T22:34:42.493Z,13.60
2023-05-11T22:37:09.402Z,13.60
2023-05-11T22:39:36.455Z,13.60
2023-05-11T22:42:03.573Z,13.60
2023-05-11T22:44:30.472Z,13.60
2023-05-11T22:46:59.381Z,13.70
2023-05-11T22:49:26.997Z,13.70
2023-05-11T22:51:58.647Z,13.70
2023-05-11T22:54:26.684Z,13.70
2023-05-11T22:56:53.953Z,13.70
2023-05-11T22:59:21.055Z,13.70
2023-05-11T23:01:47.956Z,13.70
2023-05-11T23:04:15.279Z,13.60
2023-05-11T23:06:42.261Z,13.60
2023-05-11T23:09:09.864Z,13.60
2023-05-11T23:11:36.750Z,13.60
2023-05-11T23:14:04.202Z,13.70
2023-05-11T23:16:31.079Z,13.60
2023-05-11T23:18:58.118Z,13.60
2023-05-11T23:21:25.058Z,13.60
2023-05-11T23:23:51.903Z,13.60
2023-05-11T23:26:18.873Z,13.60
2023-05-11T23:28:45.660Z,13.50
2023-05-11T23:31:12.528Z,13.50
2023-05-11T23:33:39.500Z,13.50
2023-05-11T23:36:06.711Z,13.50
2023-05-11T23:38:35.140Z,13.40
2023-05-11T23:41:01.971Z,13.40
2023-05-11T23:43:28.949Z,13.40
2023-05-11T23:45:57.695Z,13.30
2023-05-11T23:48:24.757Z,13.30
2023-05-11T23:50:51.596Z,13.30
2023-05-11T23:53:18.729Z,13.30
2023-05-11T23:55:50.850Z,13.30
2023-05-11T23:58:17.713Z,13.20
